createdAt,value
2017-12-17T00:01:29.036Z,3.40
2017-12-17T00:03:56.598Z,3.20
2017-12-17T00:06:24.191Z,5.10
2017-12-17T00:08:52.524Z,5.30
2017-12-17T00:11:20.119Z,5.68
2017-12-17T00:13:47.673Z,5.72
2017-12-17T00:16:15.256Z,5.30
2017-12-17T00:18:42.923Z,6.10
2017-12-17T00:21:11.247Z,4.82
2017-12-17T00:23:38.809Z,6.85
2017-12-17T00:26:06.399Z,5.37
2017-12-17T00:28:33.979Z,3.30
2017-12-17T00:31:02.339Z,6.05
2017-12-17T00:33:29.912Z,6.50
2017-12-17T00:35:58.251Z,6.43
2017-12-17T00:38:25.835Z,6.90
2017-12-17T00:40:53.382Z,6.20
2017-12-17T00:43:20.991Z,6.45
2017-12-17T00:45:48.566Z,6.32
2017-12-17T00:48:16.422Z,6.12
2017-12-17T00:50:44.003Z,7.03
2017-12-17T00:53:11.558Z,6.20
2017-12-17T00:55:39.154Z,6.43
2017-12-17T00:58:07.476Z,6.00
2017-12-17T01:00:35.038Z,5.22
2017-12-17T01:03:02.639Z,5.22
2017-12-17T01:05:30.347Z,6.28
2017-12-17T01:07:57.943Z,4.82
2017-12-17T01:10:25.527Z,5.32
2017-12-17T01:12:54.011Z,6.72
2017-12-17T01:15:22.339Z,5.85
2017-12-17T01:17:49.918Z,4.80
2017-12-17T01:20:17.499Z,3.58
2017-12-17T01:22:45.151Z,4.12
2017-12-17T01:25:12.775Z,4.53
2017-12-17T01:27:40.441Z,3.87
2017-12-17T01:30:08.103Z,4.90
2017-12-17T01:32:35.683Z,4.65
2017-12-17T01:35:03.234Z,4.15
2017-12-17T01:37:30.920Z,4.25
2017-12-17T01:39:58.474Z,3.85
2017-12-17T01:42:26.055Z,4.03
2017-12-17T01:44:54.391Z,5.28
2017-12-17T01:47:22.084Z,5.00
2017-12-17T01:49:50.427Z,4.62
2017-12-17T01:52:18.884Z,5.35
2017-12-17T01:54:46.490Z,5.20
2017-12-17T01:57:14.835Z,5.60
2017-12-17T01:59:42.403Z,6.28
2017-12-17T02:02:10.003Z,5.53
2017-12-17T02:04:37.554Z,5.85
2017-12-17T02:07:05.906Z,5.03
2017-12-17T02:09:33.459Z,5.10
2017-12-17T02:12:01.059Z,5.72
2017-12-17T02:14:29.382Z,5.35
2017-12-17T02:16:56.935Z,6.18
2017-12-17T02:19:24.535Z,5.60
2017-12-17T02:21:52.893Z,4.80
2017-12-17T02:24:20.515Z,5.00
2017-12-17T02:26:48.075Z,6.03
2017-12-17T02:29:15.724Z,6.43
2017-12-17T02:31:43.315Z,5.10
2017-12-17T02:34:10.975Z,5.15
2017-12-17T02:36:38.548Z,5.40
2017-12-17T02:39:06.143Z,5.00
2017-12-17T02:41:33.700Z,4.37
2017-12-17T02:44:01.293Z,5.80
2017-12-17T02:46:28.887Z,5.72
2017-12-17T02:48:56.558Z,5.87
2017-12-17T02:51:24.268Z,4.90
2017-12-17T02:53:51.855Z,5.53
2017-12-17T02:56:19.519Z,5.82
2017-12-17T02:58:47.106Z,5.57
2017-12-17T03:01:15.429Z,5.70
2017-12-17T03:03:43.028Z,6.80
2017-12-17T03:06:10.584Z,5.95
2017-12-17T03:08:38.242Z,4.62
2017-12-17T03:11:05.952Z,4.72
2017-12-17T03:13:33.563Z,4.72
2017-12-17T03:16:01.171Z,5.47
2017-12-17T03:18:28.746Z,5.62
2017-12-17T03:20:56.345Z,6.15
2017-12-17T03:23:23.923Z,4.53
2017-12-17T03:25:51.512Z,4.43
2017-12-17T03:28:19.158Z,6.28
2017-12-17T03:30:46.732Z,5.45
2017-12-17T03:33:14.325Z,5.57
2017-12-17T03:35:41.871Z,5.15
2017-12-17T03:38:09.475Z,5.72
2017-12-17T03:40:37.835Z,5.95
2017-12-17T03:43:05.399Z,5.68
2017-12-17T03:45:33.784Z,5.50
2017-12-17T03:48:02.103Z,5.70
2017-12-17T03:50:29.654Z,5.78
2017-12-17T03:52:57.247Z,5.18
2017-12-17T03:55:24.802Z,5.68
2017-12-17T03:57:52.390Z,5.10
2017-12-17T04:00:20.718Z,5.00
2017-12-17T04:02:48.305Z,4.53
2017-12-17T04:05:15.938Z,5.68
2017-12-17T04:07:43.494Z,5.18
2017-12-17T04:10:11.124Z,4.95
2017-12-17T04:12:38.699Z,5.25
2017-12-17T04:15:06.375Z,5.62
2017-12-17T04:17:33.955Z,5.00
2017-12-17T04:20:01.518Z,5.18
2017-12-17T04:22:29.127Z,5.03
2017-12-17T04:24:56.681Z,5.28
2017-12-17T04:27:24.311Z,5.25
2017-12-17T04:29:52.834Z,5.45
2017-12-17T04:32:20.528Z,5.70
2017-12-17T04:34:48.112Z,4.90
2017-12-17T04:37:15.668Z,5.40
2017-12-17T04:39:44.014Z,5.00
2017-12-17T04:42:11.615Z,4.95
2017-12-17T04:44:39.936Z,4.70
2017-12-17T04:47:07.590Z,5.35
2017-12-17T04:49:35.246Z,5.20
2017-12-17T04:52:02.820Z,5.57
2017-12-17T04:54:30.404Z,5.25
2017-12-17T04:56:57.952Z,4.87
2017-12-17T04:59:25.512Z,4.90
2017-12-17T05:01:53.102Z,5.28
2017-12-17T05:04:21.435Z,6.30
2017-12-17T05:06:48.993Z,5.22
2017-12-17T05:09:16.623Z,5.00
2017-12-17T05:11:44.198Z,5.45
2017-12-17T05:14:11.786Z,6.30
2017-12-17T05:16:39.346Z,4.50
2017-12-17T05:19:06.927Z,4.50
2017-12-17T05:21:35.246Z,4.87
2017-12-17T05:24:02.874Z,5.00
2017-12-17T05:26:31.191Z,5.32
2017-12-17T05:28:58.754Z,4.75
2017-12-17T05:31:26.355Z,3.70
2017-12-17T05:33:54.686Z,5.03
2017-12-17T05:36:22.278Z,4.80
2017-12-17T05:38:49.838Z,4.70
2017-12-17T05:41:17.426Z,4.25
2017-12-17T05:43:45.015Z,4.35
2017-12-17T05:46:12.699Z,5.37
2017-12-17T05:48:40.256Z,5.57
2017-12-17T05:51:07.863Z,5.30
2017-12-17T05:53:35.419Z,4.57
2017-12-17T05:56:03.758Z,5.05
2017-12-17T05:58:31.354Z,4.95
2017-12-17T06:00:58.914Z,5.05
2017-12-17T06:03:26.596Z,4.90
2017-12-17T06:05:54.156Z,4.90
2017-12-17T06:08:21.752Z,5.40
2017-12-17T06:10:49.307Z,5.40
2017-12-17T06:13:16.939Z,4.90
2017-12-17T06:15:44.752Z,5.75
2017-12-17T06:18:13.075Z,5.15
2017-12-17T06:20:40.676Z,5.05
2017-12-17T06:23:08.310Z,5.78
2017-12-17T06:25:35.870Z,5.70
2017-12-17T06:28:03.511Z,3.45
2017-12-17T06:30:31.068Z,5.15
2017-12-17T06:32:58.651Z,5.32
2017-12-17T06:35:26.206Z,4.85
2017-12-17T06:37:53.855Z,4.55
2017-12-17T06:40:21.416Z,5.40
2017-12-17T06:42:49.119Z,4.57
2017-12-17T06:45:16.706Z,4.37
2017-12-17T06:47:44.271Z,5.20
2017-12-17T06:50:11.830Z,5.45
2017-12-17T06:52:39.406Z,5.00
2017-12-17T06:55:07.117Z,5.47
2017-12-17T06:57:34.677Z,4.65
2017-12-17T07:00:02.999Z,4.50
2017-12-17T07:02:30.590Z,4.20
2017-12-17T07:04:58.135Z,4.90
2017-12-17T07:07:25.730Z,5.40
2017-12-17T07:09:54.048Z,5.93
2017-12-17T07:12:21.626Z,6.57
2017-12-17T07:14:49.222Z,5.45
2017-12-17T07:17:17.555Z,4.47
2017-12-17T07:19:45.131Z,4.47
2017-12-17T07:22:12.865Z,4.90
2017-12-17T07:24:40.478Z,3.60
2017-12-17T07:27:08.819Z,4.85
2017-12-17T07:29:36.390Z,4.72
2017-12-17T07:32:03.959Z,4.50
2017-12-17T07:34:31.542Z,5.40
2017-12-17T07:36:59.903Z,5.60
2017-12-17T07:39:27.458Z,4.75
2017-12-17T07:41:55.043Z,6.20
2017-12-17T07:44:23.363Z,5.75
2017-12-17T07:46:50.943Z,5.97
2017-12-17T07:49:18.493Z,6.78
2017-12-17T07:51:46.107Z,5.93
2017-12-17T07:54:13.770Z,4.78
2017-12-17T07:56:41.440Z,5.12
2017-12-17T07:59:09.010Z,5.22
2017-12-17T08:01:36.591Z,4.82
2017-12-17T08:04:05.955Z,5.25
2017-12-17T08:06:33.504Z,5.80
2017-12-17T08:09:01.091Z,4.00
2017-12-17T08:11:28.666Z,3.65
2017-12-17T08:13:56.226Z,4.55
2017-12-17T08:16:23.899Z,4.30
2017-12-17T08:18:51.461Z,5.62
2017-12-17T08:21:19.044Z,4.00
2017-12-17T08:23:47.415Z,4.90
2017-12-17T08:26:15.778Z,3.62
2017-12-17T08:28:43.369Z,4.45
2017-12-17T08:31:10.946Z,4.00
2017-12-17T08:33:38.647Z,4.10
2017-12-17T08:36:06.215Z,5.03
2017-12-17T08:38:34.638Z,4.82
2017-12-17T08:41:02.330Z,7.15
2017-12-17T08:43:29.886Z,5.20
2017-12-17T08:45:57.517Z,4.75
2017-12-17T08:48:25.071Z,8.55
2017-12-17T08:50:52.667Z,5.18
2017-12-17T08:53:20.227Z,4.70
2017-12-17T08:55:47.957Z,4.60
2017-12-17T08:58:15.546Z,4.50
2017-12-17T09:00:43.380Z,5.60
2017-12-17T09:03:10.966Z,3.80
2017-12-17T09:05:38.599Z,4.35
2017-12-17T09:08:06.156Z,4.43
2017-12-17T09:10:33.787Z,4.18
2017-12-17T09:13:02.100Z,4.72
2017-12-17T09:15:29.759Z,4.45
2017-12-17T09:17:57.339Z,3.75
2017-12-17T09:20:24.956Z,3.70
2017-12-17T09:22:52.660Z,3.72
2017-12-17T09:25:20.274Z,3.40
2017-12-17T09:27:48.056Z,4.45
2017-12-17T09:30:15.930Z,3.62
2017-12-17T09:32:43.580Z,3.55
2017-12-17T09:35:11.183Z,4.32
2017-12-17T09:37:38.803Z,3.55
2017-12-17T09:40:06.355Z,3.72
2017-12-17T09:42:34.069Z,2.78
2017-12-17T09:45:01.679Z,2.83
2017-12-17T09:47:29.443Z,2.90
2017-12-17T09:49:56.999Z,1.35
2017-12-17T09:52:24.731Z,2.30
2017-12-17T09:54:53.128Z,2.10
2017-12-17T09:57:20.708Z,1.75
2017-12-17T09:59:48.303Z,1.73
2017-12-17T10:02:15.875Z,0.80
2017-12-17T10:04:43.501Z,1.80
2017-12-17T10:07:11.137Z,1.83
2017-12-17T10:09:38.813Z,1.48
2017-12-17T10:12:06.394Z,1.55
2017-12-17T10:14:34.015Z,2.08
2017-12-17T10:17:01.603Z,2.42
2017-12-17T10:19:29.202Z,1.80
2017-12-17T10:21:57.581Z,1.10
2017-12-17T10:24:25.948Z,1.80
2017-12-17T10:26:54.320Z,1.35
2017-12-17T10:29:22.028Z,1.00
2017-12-17T10:31:49.585Z,1.95
2017-12-17T10:34:17.183Z,2.00
2017-12-17T10:36:44.749Z,2.00
2017-12-17T10:39:12.424Z,1.92
2017-12-17T10:41:40.842Z,2.20
2017-12-17T10:44:08.439Z,1.80
2017-12-17T10:46:36.011Z,2.00
2017-12-17T10:49:03.827Z,1.98
2017-12-17T10:51:31.436Z,2.87
2017-12-17T10:53:59.002Z,2.10
2017-12-17T10:56:27.378Z,1.70
2017-12-17T10:58:55.723Z,1.45
2017-12-17T11:01:23.330Z,1.50
2017-12-17T11:03:51.656Z,1.30
2017-12-17T11:06:19.291Z,1.25
2017-12-17T11:08:46.863Z,1.23
2017-12-17T11:11:14.525Z,1.40
2017-12-17T11:13:42.273Z,1.40
2017-12-17T11:16:09.888Z,1.60
2017-12-17T11:18:38.282Z,1.87
2017-12-17T11:21:06.646Z,1.40
2017-12-17T11:23:35.015Z,1.62
2017-12-17T11:26:02.716Z,1.52
2017-12-17T11:28:30.464Z,2.05
2017-12-17T11:30:58.970Z,2.22
2017-12-17T11:33:26.561Z,1.83
2017-12-17T11:35:54.123Z,2.10
2017-12-17T11:38:21.955Z,2.12
2017-12-17T11:40:49.614Z,1.60
2017-12-17T11:43:17.216Z,1.65
2017-12-17T11:45:44.788Z,2.20
2017-12-17T11:48:13.143Z,2.37
2017-12-17T11:50:40.767Z,1.95
2017-12-17T11:53:08.346Z,2.35
2017-12-17T11:55:35.987Z,2.08
2017-12-17T11:58:03.543Z,2.00
2017-12-17T12:00:31.135Z,2.00
2017-12-17T12:02:58.701Z,1.60
2017-12-17T12:05:26.423Z,1.75
2017-12-17T12:07:53.986Z,1.50
2017-12-17T12:10:21.547Z,1.80
2017-12-17T12:12:49.147Z,2.85
2017-12-17T12:15:16.771Z,2.00
2017-12-17T12:17:44.379Z,2.05
2017-12-17T12:20:12.804Z,1.85
2017-12-17T12:22:40.459Z,2.50
2017-12-17T12:25:08.048Z,2.40
2017-12-17T12:27:35.609Z,1.65
2017-12-17T12:30:03.299Z,1.83
2017-12-17T12:32:31.750Z,2.00
2017-12-17T12:34:59.358Z,2.15
2017-12-17T12:37:26.933Z,2.35
2017-12-17T12:39:54.506Z,1.95
2017-12-17T12:42:22.150Z,1.85
2017-12-17T12:44:49.709Z,1.70
2017-12-17T12:47:17.305Z,1.90
2017-12-17T12:49:44.889Z,2.20
2017-12-17T12:52:13.307Z,2.15
2017-12-17T12:54:40.996Z,2.37
2017-12-17T12:57:08.577Z,2.03
2017-12-17T12:59:36.159Z,2.60
2017-12-17T13:02:03.730Z,2.37
2017-12-17T13:04:31.405Z,2.37
2017-12-17T13:06:58.967Z,1.92
2017-12-17T13:09:26.631Z,2.45
2017-12-17T13:11:54.194Z,2.05
2017-12-17T13:14:21.845Z,2.62
2017-12-17T13:16:49.436Z,2.00
2017-12-17T13:19:17.024Z,2.28
2017-12-17T13:21:45.426Z,1.95
2017-12-17T13:24:12.992Z,2.58
2017-12-17T13:26:40.657Z,1.80
2017-12-17T13:29:08.250Z,2.50
2017-12-17T13:31:35.863Z,2.47
2017-12-17T13:34:03.440Z,2.22
2017-12-17T13:36:31.040Z,2.70
2017-12-17T13:38:58.655Z,2.28
2017-12-17T13:41:26.229Z,2.40
2017-12-17T13:43:53.811Z,2.37
2017-12-17T13:46:21.379Z,2.53
2017-12-17T13:48:49.009Z,2.30
2017-12-17T13:51:16.564Z,2.50
2017-12-17T13:53:44.131Z,2.85
2017-12-17T13:56:11.757Z,2.60
2017-12-17T13:58:39.323Z,2.50
2017-12-17T14:01:06.986Z,1.70
2017-12-17T14:03:34.551Z,3.12
2017-12-17T14:06:02.134Z,4.50
2017-12-17T14:08:29.695Z,4.20
2017-12-17T14:10:57.287Z,2.22
2017-12-17T14:13:25.655Z,2.50
2017-12-17T14:15:54.003Z,3.53
2017-12-17T14:18:21.615Z,3.58
2017-12-17T14:20:49.188Z,2.50
2017-12-17T14:23:16.842Z,3.10
2017-12-17T14:25:44.457Z,2.95
2017-12-17T14:28:12.079Z,3.03
2017-12-17T14:30:39.648Z,3.20
2017-12-17T14:33:07.246Z,3.12
2017-12-17T14:35:35.726Z,2.80
2017-12-17T14:38:03.274Z,3.28
2017-12-17T14:40:30.851Z,3.05
2017-12-17T14:42:59.367Z,3.03
2017-12-17T14:45:27.027Z,2.90
2017-12-17T14:47:54.687Z,3.10
2017-12-17T14:50:22.423Z,3.17
2017-12-17T14:52:50.768Z,3.85
2017-12-17T14:55:18.431Z,3.47
2017-12-17T14:57:46.092Z,3.30
2017-12-17T15:00:13.809Z,2.97
2017-12-17T15:02:41.445Z,2.65
2017-12-17T15:05:09.805Z,3.10
2017-12-17T15:07:37.459Z,2.70
2017-12-17T15:10:05.088Z,3.05
2017-12-17T15:12:32.687Z,2.90
2017-12-17T15:15:01.068Z,3.10
2017-12-17T15:17:29.449Z,3.60
2017-12-17T15:19:57.848Z,3.83
2017-12-17T15:22:25.447Z,3.20
2017-12-17T15:24:53.016Z,3.30
2017-12-17T15:27:20.640Z,3.28
2017-12-17T15:29:48.251Z,1.40
2017-12-17T15:32:15.928Z,2.25
2017-12-17T15:34:44.375Z,3.03
2017-12-17T15:37:11.939Z,3.03
2017-12-17T15:39:39.555Z,3.45
2017-12-17T15:42:07.121Z,4.10
2017-12-17T15:44:34.715Z,2.97
2017-12-17T15:47:02.340Z,3.15
2017-12-17T15:49:29.967Z,3.42
2017-12-17T15:51:58.303Z,2.53
2017-12-17T15:54:26.006Z,3.55
2017-12-17T15:56:53.564Z,3.30
2017-12-17T15:59:21.146Z,2.80
2017-12-17T16:01:48.714Z,3.67
2017-12-17T16:04:16.310Z,2.70
2017-12-17T16:06:43.922Z,3.12
2017-12-17T16:09:11.643Z,3.28
2017-12-17T16:11:40.070Z,3.75
2017-12-17T16:14:07.643Z,3.90
2017-12-17T16:16:35.235Z,3.65
2017-12-17T16:19:02.827Z,3.90
2017-12-17T16:21:30.544Z,4.40
2017-12-17T16:23:58.114Z,3.80
2017-12-17T16:26:26.514Z,4.87
2017-12-17T16:28:54.209Z,3.97
2017-12-17T16:31:21.851Z,4.55
2017-12-17T16:33:49.463Z,5.50
2017-12-17T16:36:17.196Z,3.75
2017-12-17T16:38:44.798Z,4.15
2017-12-17T16:41:12.707Z,4.57
2017-12-17T16:43:40.335Z,4.30
2017-12-17T16:46:08.823Z,4.78
2017-12-17T16:48:38.235Z,3.60
2017-12-17T16:51:05.999Z,4.25
2017-12-17T16:53:33.557Z,3.58
2017-12-17T16:56:01.158Z,3.70
2017-12-17T16:58:28.743Z,4.72
2017-12-17T17:00:56.376Z,4.03
2017-12-17T17:03:23.908Z,4.25
2017-12-17T17:05:51.466Z,4.78
2017-12-17T17:08:19.103Z,4.90
2017-12-17T17:10:46.707Z,4.35
2017-12-17T17:13:14.341Z,4.75
2017-12-17T17:15:41.905Z,4.00
2017-12-17T17:18:09.504Z,4.25
2017-12-17T17:20:37.953Z,4.70
2017-12-17T17:23:05.535Z,4.37
2017-12-17T17:25:33.206Z,4.82
2017-12-17T17:28:00.768Z,5.90
2017-12-17T17:30:28.392Z,4.43
2017-12-17T17:32:56.036Z,4.80
2017-12-17T17:35:23.619Z,2.72
2017-12-17T17:37:51.195Z,3.80
2017-12-17T17:40:18.803Z,4.50
2017-12-17T17:42:46.359Z,4.40
2017-12-17T17:45:13.926Z,4.85
2017-12-17T17:47:41.508Z,5.00
2017-12-17T17:50:09.070Z,5.60
2017-12-17T17:52:36.711Z,5.05
2017-12-17T17:55:04.278Z,4.93
2017-12-17T17:57:31.867Z,5.40
2017-12-17T17:59:59.464Z,5.55
2017-12-17T18:02:27.030Z,5.20
2017-12-17T18:04:54.704Z,6.00
2017-12-17T18:07:22.240Z,6.12
2017-12-17T18:09:49.824Z,6.53
2017-12-17T18:12:17.426Z,5.65
2017-12-17T18:14:44.998Z,5.97
2017-12-17T18:17:13.359Z,6.55
2017-12-17T18:19:41.178Z,5.90
2017-12-17T18:22:08.794Z,6.32
2017-12-17T18:24:37.902Z,5.93
2017-12-17T18:27:06.239Z,5.53
2017-12-17T18:29:33.871Z,5.35
2017-12-17T18:32:01.502Z,5.57
2017-12-17T18:34:29.955Z,5.57
2017-12-17T18:36:57.515Z,6.90
2017-12-17T18:39:25.095Z,5.55
2017-12-17T18:41:53.451Z,5.60
2017-12-17T18:44:21.827Z,4.87
2017-12-17T18:46:49.428Z,5.47
2017-12-17T18:49:17.054Z,5.20
2017-12-17T18:51:44.646Z,5.47
2017-12-17T18:54:12.199Z,5.32
2017-12-17T18:56:39.976Z,2.37
2017-12-17T18:59:07.543Z,4.68
2017-12-17T19:01:35.119Z,3.37
2017-12-17T19:04:02.715Z,4.97
2017-12-17T19:06:31.083Z,4.15
2017-12-17T19:08:58.811Z,4.25
2017-12-17T19:11:26.400Z,4.47
2017-12-17T19:13:54.043Z,5.43
2017-12-17T19:16:21.671Z,4.40
2017-12-17T19:18:49.243Z,4.28
2017-12-17T19:21:16.839Z,4.28
2017-12-17T19:23:44.435Z,4.62
2017-12-17T19:26:12.228Z,2.90
2017-12-17T19:28:39.798Z,4.50
2017-12-17T19:31:07.365Z,4.78
2017-12-17T19:33:35.003Z,4.82
2017-12-17T19:36:02.604Z,4.15
2017-12-17T19:38:30.313Z,4.57
2017-12-17T19:40:57.868Z,3.30
2017-12-17T19:43:25.568Z,5.40
2017-12-17T19:45:53.320Z,3.08
2017-12-17T19:48:21.065Z,5.12
2017-12-17T19:50:48.677Z,2.30
2017-12-17T19:53:17.023Z,4.50
2017-12-17T19:55:44.630Z,4.22
2017-12-17T19:58:13.030Z,3.22
2017-12-17T20:00:40.611Z,2.90
2017-12-17T20:03:08.265Z,1.65
2017-12-17T20:05:35.797Z,3.78
2017-12-17T20:08:03.426Z,5.00
2017-12-17T20:10:31.781Z,4.47
2017-12-17T20:12:59.403Z,4.45
2017-12-17T20:15:27.011Z,4.70
2017-12-17T20:17:54.616Z,3.83
2017-12-17T20:20:22.199Z,2.37
2017-12-17T20:22:49.766Z,2.62
2017-12-17T20:25:17.373Z,3.40
2017-12-17T20:27:45.741Z,3.45
2017-12-17T20:30:14.120Z,2.90
2017-12-17T20:32:42.569Z,3.97
2017-12-17T20:35:10.268Z,1.95
2017-12-17T20:37:38.643Z,2.47
2017-12-17T20:40:06.984Z,5.25
2017-12-17T20:42:34.608Z,4.60
2017-12-17T20:45:02.270Z,3.67
2017-12-17T20:47:29.833Z,3.58
2017-12-17T20:49:57.507Z,4.22
2017-12-17T20:52:25.075Z,4.20
2017-12-17T20:54:52.660Z,4.30
2017-12-17T20:57:20.226Z,3.65
2017-12-17T20:59:48.742Z,3.30
2017-12-17T21:02:16.506Z,4.12
2017-12-17T21:04:44.091Z,2.95
2017-12-17T21:07:11.697Z,3.55
2017-12-17T21:09:40.023Z,2.67
2017-12-17T21:12:07.655Z,4.10
2017-12-17T21:14:35.295Z,1.90
2017-12-17T21:17:03.678Z,3.50
2017-12-17T21:19:32.046Z,2.15
2017-12-17T21:22:00.440Z,4.18
2017-12-17T21:24:28.052Z,4.22
2017-12-17T21:26:55.814Z,4.95
2017-12-17T21:29:23.419Z,2.95
2017-12-17T21:31:50.993Z,3.83
2017-12-17T21:34:18.555Z,3.35
2017-12-17T21:36:46.146Z,2.70
2017-12-17T21:39:13.771Z,3.53
2017-12-17T21:41:41.371Z,4.95
2017-12-17T21:44:08.924Z,2.65
2017-12-17T21:46:36.546Z,4.53
2017-12-17T21:49:04.125Z,5.22
2017-12-17T21:51:31.704Z,4.65
2017-12-17T21:53:59.311Z,5.20
2017-12-17T21:56:26.880Z,3.35
2017-12-17T21:58:54.543Z,4.60
2017-12-17T22:01:22.156Z,4.75
2017-12-17T22:03:49.752Z,3.60
2017-12-17T22:06:17.315Z,4.70
2017-12-17T22:08:44.911Z,4.57
2017-12-17T22:11:12.468Z,2.25
2017-12-17T22:13:40.055Z,2.35
2017-12-17T22:16:07.678Z,4.00
2017-12-17T22:18:35.244Z,4.65
2017-12-17T22:21:02.832Z,4.35
2017-12-17T22:23:31.295Z,4.30
2017-12-17T22:25:58.871Z,2.60
2017-12-17T22:28:27.290Z,2.87
2017-12-17T22:30:54.868Z,4.32
2017-12-17T22:33:22.571Z,5.22
2017-12-17T22:35:50.898Z,3.90
2017-12-17T22:38:18.547Z,4.78
2017-12-17T22:40:46.138Z,5.60
2017-12-17T22:43:13.707Z,4.68
2017-12-17T22:45:41.375Z,1.90
2017-12-17T22:48:08.927Z,4.78
2017-12-17T22:50:36.540Z,2.70
2017-12-17T22:53:04.115Z,4.87
2017-12-17T22:55:31.675Z,4.20
2017-12-17T22:57:59.266Z,2.40
2017-12-17T23:00:26.820Z,6.45
2017-12-17T23:02:54.434Z,3.45
2017-12-17T23:05:22.004Z,5.25
2017-12-17T23:07:49.579Z,6.18
2017-12-17T23:10:17.179Z,3.60
2017-12-17T23:12:45.554Z,2.20
2017-12-17T23:15:14.069Z,4.85
2017-12-17T23:17:41.700Z,4.18
2017-12-17T23:20:09.247Z,4.20
2017-12-17T23:22:37.569Z,5.72
2017-12-17T23:25:05.161Z,6.30
2017-12-17T23:27:32.799Z,5.68
2017-12-17T23:30:00.369Z,3.72
2017-12-17T23:32:27.931Z,3.47
2017-12-17T23:34:55.519Z,5.47
2017-12-17T23:37:23.910Z,6.32
2017-12-17T23:39:52.250Z,2.92
2017-12-17T23:42:19.807Z,5.50
2017-12-17T23:44:47.402Z,5.50
2017-12-17T23:47:15.911Z,4.78
2017-12-17T23:49:43.499Z,3.70
2017-12-17T23:52:11.055Z,3.60
2017-12-17T23:54:38.738Z,2.72
2017-12-17T23:57:06.338Z,5.00
2017-12-17T23:59:34.031Z,6.50
